createdAt,value
2019-04-11T00:00:23.570Z,33.508301
2019-04-11T00:01:33.708Z,33.624268
2019-04-11T00:02:24.736Z,33.624268
2019-04-11T00:03:23.096Z,33.624268
2019-04-11T00:04:24.237Z,33.508301
2019-04-11T00:05:23.299Z,33.508301
2019-04-11T00:06:25.315Z,33.508301
2019-04-11T00:07:24.527Z,33.508301
2019-04-11T00:08:23.548Z,33.508301
2019-04-11T00:09:24.980Z,33.508301
2019-04-11T00:10:24.874Z,33.508301
2019-04-11T00:11:25.996Z,33.410645
2019-04-11T00:12:24.280Z,33.508301
2019-04-11T00:13:26.965Z,33.410645
2019-04-11T00:14:25.342Z,33.410645
2019-04-11T00:15:24.537Z,33.508301
2019-04-11T00:16:25.449Z,33.508301
2019-04-11T00:17:25.669Z,33.508301
2019-04-11T00:18:26.727Z,33.508301
2019-04-11T00:19:24.939Z,33.508301
2019-04-11T00:20:25.754Z,33.508301
2019-04-11T00:21:24.988Z,33.508301
2019-04-11T00:22:25.663Z,33.508301
2019-04-11T00:23:25.973Z,33.508301
2019-04-11T00:24:27.108Z,33.410645
2019-04-11T00:25:25.323Z,33.508301
2019-04-11T00:26:26.315Z,33.410645
2019-04-11T00:27:25.342Z,33.508301
2019-04-11T00:28:25.813Z,33.410645
2019-04-11T00:29:26.062Z,33.410645
2019-04-11T00:30:26.151Z,33.508301
2019-04-11T00:31:25.908Z,33.508301
2019-04-11T00:32:25.884Z,33.508301
2019-04-11T00:33:26.497Z,33.526611
2019-04-11T00:34:26.858Z,33.526611
2019-04-11T00:35:26.280Z,33.526611
2019-04-11T00:36:26.323Z,33.526611
2019-04-11T00:37:27.312Z,33.624268
2019-04-11T00:38:26.412Z,33.526611
2019-04-11T00:39:27.899Z,33.526611
2019-04-11T00:40:27.658Z,33.526611
2019-04-11T00:41:28.126Z,33.526611
2019-04-11T00:42:26.900Z,33.526611
2019-04-11T00:43:33.882Z,33.526611
2019-04-11T00:44:28.333Z,33.624268
2019-04-11T00:45:27.576Z,33.526611
2019-04-11T00:46:28.607Z,33.624268
2019-04-11T00:47:29.025Z,33.526611
2019-04-11T00:48:27.980Z,33.526611
2019-04-11T00:49:27.905Z,33.526611
2019-04-11T00:50:28.935Z,33.526611
2019-04-11T00:51:27.923Z,33.526611
2019-04-11T00:52:27.941Z,33.410645
2019-04-11T00:53:28.130Z,33.526611
2019-04-11T00:54:29.000Z,33.526611
2019-04-11T00:55:29.220Z,33.526611
2019-04-11T00:56:30.368Z,33.526611
2019-04-11T00:57:28.611Z,33.526611
2019-04-11T00:58:29.668Z,33.526611
2019-04-11T00:59:28.650Z,33.526611
2019-04-11T01:00:29.673Z,33.526611
2019-04-11T01:01:28.879Z,33.526611
2019-04-11T01:02:29.421Z,33.526611
2019-04-11T01:03:31.325Z,33.526611
2019-04-11T01:04:29.303Z,33.526611
2019-04-11T01:05:30.199Z,33.526611
2019-04-11T01:06:30.072Z,33.526611
2019-04-11T01:07:29.456Z,33.526611
2019-04-11T01:08:29.608Z,33.526611
2019-04-11T01:09:30.537Z,33.526611
2019-04-11T01:10:30.000Z,33.526611
2019-04-11T01:11:32.019Z,33.526611
2019-04-11T01:12:30.032Z,33.526611
2019-04-11T01:13:39.587Z,33.526611
2019-04-11T01:14:32.026Z,33.526611
2019-04-11T01:15:31.402Z,33.526611
2019-04-11T01:16:31.273Z,33.526611
2019-04-11T01:17:31.601Z,33.526611
2019-04-11T01:18:30.938Z,33.526611
2019-04-11T01:19:31.685Z,33.526611
2019-04-11T01:20:31.386Z,33.526611
2019-04-11T01:21:30.845Z,33.526611
2019-04-11T01:22:32.007Z,33.526611
2019-04-11T01:23:31.139Z,33.526611
2019-04-11T01:24:31.489Z,33.624268
2019-04-11T01:25:31.207Z,33.526611
2019-04-11T01:26:31.298Z,33.526611
2019-04-11T01:27:32.065Z,33.526611
2019-04-11T01:28:31.656Z,33.526611
2019-04-11T01:29:31.863Z,33.526611
2019-04-11T01:30:31.757Z,33.526611
2019-04-11T01:31:31.779Z,33.624268
2019-04-11T01:32:32.571Z,33.526611
2019-04-11T01:33:32.015Z,33.526611
2019-04-11T01:34:32.902Z,33.526611
2019-04-11T01:35:33.172Z,33.526611
2019-04-11T01:36:33.325Z,33.526611
2019-04-11T01:37:33.502Z,33.526611
2019-04-11T01:38:32.661Z,33.526611
2019-04-11T01:39:33.604Z,33.526611
2019-04-11T01:40:33.950Z,33.526611
2019-04-11T01:41:34.306Z,33.526611
2019-04-11T01:42:33.433Z,33.526611
2019-04-11T01:43:33.131Z,33.526611
2019-04-11T01:44:34.691Z,33.526611
2019-04-11T01:45:34.289Z,33.526611
2019-04-11T01:46:33.994Z,33.526611
2019-04-11T01:47:33.471Z,33.526611
2019-04-11T01:48:33.863Z,33.526611
2019-04-11T01:49:34.421Z,33.526611
2019-04-11T01:50:34.872Z,33.526611
2019-04-11T01:51:35.851Z,33.526611
2019-04-11T01:52:34.201Z,33.526611
2019-04-11T01:53:35.139Z,33.526611
2019-04-11T01:54:34.094Z,33.526611
2019-04-11T01:55:34.737Z,33.526611
2019-04-11T01:56:34.369Z,33.526611
2019-04-11T01:57:34.347Z,33.526611
2019-04-11T01:58:35.076Z,33.526611
2019-04-11T01:59:35.341Z,33.526611
2019-04-11T02:00:36.496Z,33.526611
2019-04-11T02:01:34.821Z,33.526611
2019-04-11T02:02:34.789Z,33.526611
2019-04-11T02:03:35.116Z,33.428955
2019-04-11T02:04:36.979Z,33.526611
2019-04-11T02:05:35.120Z,33.526611
2019-04-11T02:06:36.192Z,33.526611
2019-04-11T02:07:36.447Z,33.526611
2019-04-11T02:08:37.559Z,33.526611
2019-04-11T02:09:35.895Z,33.526611
2019-04-11T02:10:35.589Z,33.526611
2019-04-11T02:11:35.719Z,33.526611
2019-04-11T02:12:35.793Z,33.526611
2019-04-11T02:13:36.259Z,33.526611
2019-04-11T02:14:35.875Z,33.526611
2019-04-11T02:15:36.623Z,33.526611
2019-04-11T02:16:36.832Z,33.526611
2019-04-11T02:17:37.080Z,33.526611
2019-04-11T02:18:37.356Z,33.526611
2019-04-11T02:19:36.403Z,33.526611
2019-04-11T02:20:36.875Z,33.526611
2019-04-11T02:21:36.459Z,33.526611
2019-04-11T02:22:36.610Z,33.526611
2019-04-11T02:23:37.265Z,33.526611
2019-04-11T02:24:36.928Z,33.428955
2019-04-11T02:25:36.976Z,33.428955
2019-04-11T02:26:37.698Z,33.428955
2019-04-11T02:27:37.309Z,33.526611
2019-04-11T02:28:37.454Z,33.526611
2019-04-11T02:29:37.426Z,33.526611
2019-04-11T02:30:39.116Z,33.526611
2019-04-11T02:31:39.272Z,33.526611
2019-04-11T02:32:40.390Z,33.526611
2019-04-11T02:33:39.067Z,33.526611
2019-04-11T02:34:39.695Z,33.526611
2019-04-11T02:35:39.858Z,33.526611
2019-04-11T02:36:38.468Z,33.526611
2019-04-11T02:37:39.747Z,33.624268
2019-04-11T02:38:41.063Z,33.526611
2019-04-11T02:39:40.903Z,33.526611
2019-04-11T02:40:41.068Z,33.526611
2019-04-11T02:41:39.762Z,33.642578
2019-04-11T02:42:38.975Z,33.624268
2019-04-11T02:43:41.789Z,33.526611
2019-04-11T02:44:59.121Z,33.526611
2019-04-11T02:45:52.473Z,33.526611
2019-04-11T02:46:44.706Z,33.526611
2019-04-11T02:47:43.887Z,33.526611
2019-04-11T02:48:40.788Z,33.526611
2019-04-11T02:49:41.200Z,33.526611
2019-04-11T02:50:41.423Z,33.526611
2019-04-11T02:51:40.185Z,33.544922
2019-04-11T02:52:42.204Z,33.526611
2019-04-11T02:53:41.089Z,33.526611
2019-04-11T02:54:41.158Z,33.526611
2019-04-11T02:55:41.741Z,33.428955
2019-04-11T02:56:40.789Z,33.526611
2019-04-11T02:57:42.877Z,33.526611
2019-04-11T02:58:40.502Z,33.526611
2019-04-11T02:59:43.200Z,33.526611
2019-04-11T03:00:42.171Z,33.526611
2019-04-11T03:01:42.110Z,33.526611
2019-04-11T03:02:42.451Z,33.526611
2019-04-11T03:03:42.414Z,33.526611
2019-04-11T03:04:43.708Z,33.544922
2019-04-11T03:05:41.833Z,33.642578
2019-04-11T03:06:43.858Z,33.544922
2019-04-11T03:07:42.283Z,33.544922
2019-04-11T03:08:43.053Z,33.526611
2019-04-11T03:09:43.932Z,33.526611
2019-04-11T03:10:42.974Z,33.526611
2019-04-11T03:11:43.129Z,33.526611
2019-04-11T03:12:43.514Z,33.526611
2019-04-11T03:13:44.350Z,33.526611
2019-04-11T03:14:56.422Z,33.526611
2019-04-11T03:15:59.120Z,33.428955
2019-04-11T03:16:56.197Z,33.428955
2019-04-11T03:17:46.116Z,33.428955
2019-04-11T03:18:58.790Z,33.325195
2019-04-11T03:19:58.962Z,33.312988
2019-04-11T03:20:49.452Z,33.209229
2019-04-11T03:21:46.666Z,33.209229
2019-04-11T03:22:44.945Z,33.209229
2019-04-11T03:23:44.354Z,33.209229
2019-04-11T03:24:44.759Z,33.111572
2019-04-11T03:25:44.960Z,33.111572
2019-04-11T03:26:45.672Z,33.007812
2019-04-11T03:27:45.201Z,33.007812
2019-04-11T03:28:47.306Z,33.007812
2019-04-11T03:29:45.184Z,32.995605
2019-04-11T03:31:03.594Z,32.995605
2019-04-11T03:35:34.475Z,32.794189
2019-04-11T03:36:47.487Z,32.794189
2019-04-11T03:37:22.904Z,32.696533
2019-04-11T03:38:03.396Z,32.678223
2019-04-11T03:39:05.294Z,32.678223
2019-04-11T03:40:04.154Z,32.580566
2019-04-11T03:41:04.058Z,32.580566
2019-04-11T03:42:03.777Z,32.476807
2019-04-11T03:42:59.177Z,32.476807
2019-04-11T03:43:57.679Z,32.476807
2019-04-11T03:44:50.624Z,32.36084
2019-04-11T03:46:03.473Z,32.36084
2019-04-11T03:46:58.214Z,32.36084
2019-04-11T03:48:01.575Z,32.36084
2019-04-11T03:48:55.518Z,32.36084
2019-04-11T03:49:52.944Z,32.263184
2019-04-11T03:50:48.815Z,32.36084
2019-04-11T03:51:47.953Z,32.36084
2019-04-11T03:52:47.232Z,32.263184
2019-04-11T03:53:48.921Z,32.263184
2019-04-11T03:54:47.666Z,32.263184
2019-04-11T03:55:47.623Z,32.36084
2019-04-11T03:56:49.141Z,32.263184
2019-04-11T03:57:47.070Z,32.263184
2019-04-11T03:58:48.610Z,32.263184
2019-04-11T03:59:47.828Z,32.263184
2019-04-11T04:00:50.252Z,32.36084
2019-04-11T04:01:48.667Z,32.263184
2019-04-11T04:02:48.826Z,32.263184
2019-04-11T04:03:48.989Z,32.263184
2019-04-11T04:04:49.328Z,32.36084
2019-04-11T04:05:48.638Z,32.263184
2019-04-11T04:06:49.869Z,32.263184
2019-04-11T04:07:48.825Z,32.263184
2019-04-11T04:08:50.642Z,32.263184
2019-04-11T04:09:49.091Z,32.263184
2019-04-11T04:10:48.168Z,32.263184
2019-04-11T04:11:49.739Z,32.263184
2019-04-11T04:12:48.301Z,32.263184
2019-04-11T04:13:50.155Z,32.263184
2019-04-11T04:14:49.620Z,32.263184
2019-04-11T04:15:59.516Z,32.263184
2019-04-11T04:16:50.935Z,32.263184
2019-04-11T04:17:49.819Z,32.263184
2019-04-11T04:18:48.909Z,32.263184
2019-04-11T04:19:51.341Z,32.263184
2019-04-11T04:20:51.145Z,32.263184
2019-04-11T04:21:51.085Z,32.263184
2019-04-11T04:22:49.907Z,32.263184
2019-04-11T04:23:51.746Z,32.263184
2019-04-11T04:24:51.546Z,32.263184
2019-04-11T04:25:49.523Z,32.263184
2019-04-11T04:26:52.414Z,32.263184
2019-04-11T04:27:51.235Z,32.263184
2019-04-11T04:28:51.255Z,32.263184
2019-04-11T04:29:53.640Z,32.263184
2019-04-11T04:30:51.661Z,32.263184
2019-04-11T04:31:50.839Z,32.263184
2019-04-11T04:32:50.154Z,32.263184
2019-04-11T04:33:51.385Z,32.263184
2019-04-11T04:34:53.017Z,32.263184
2019-04-11T04:35:51.715Z,32.263184
2019-04-11T04:36:51.547Z,32.263184
2019-04-11T04:37:51.765Z,32.263184
2019-04-11T04:38:52.633Z,32.263184
2019-04-11T04:40:10.662Z,32.165527
2019-04-11T04:41:06.994Z,32.263184
2019-04-11T04:41:58.647Z,32.263184
2019-04-11T04:42:55.203Z,32.263184
2019-04-11T04:43:52.768Z,32.263184
2019-04-11T04:44:51.943Z,32.263184
2019-04-11T04:46:08.242Z,32.165527
2019-04-11T04:46:59.761Z,32.263184
2019-04-11T04:47:58.692Z,32.263184
2019-04-11T04:48:53.928Z,32.263184
2019-04-11T04:49:54.191Z,32.165527
2019-04-11T04:50:54.936Z,32.263184
2019-04-11T04:51:53.280Z,32.263184
2019-04-11T04:52:53.506Z,32.263184
2019-04-11T04:53:52.083Z,32.263184
2019-04-11T04:54:53.292Z,32.263184
2019-04-11T04:55:54.237Z,32.263184
2019-04-11T04:56:52.413Z,32.263184
2019-04-11T04:57:53.204Z,32.263184
2019-04-11T04:58:53.660Z,32.263184
2019-04-11T04:59:53.258Z,32.263184
2019-04-11T05:00:54.164Z,32.165527
2019-04-11T05:01:55.068Z,32.165527
2019-04-11T05:02:54.806Z,32.165527
2019-04-11T05:03:54.077Z,32.165527
2019-04-11T05:04:54.249Z,32.263184
2019-04-11T05:05:55.232Z,32.263184
2019-04-11T05:06:54.363Z,32.263184
2019-04-11T05:07:54.169Z,32.263184
2019-04-11T05:08:55.859Z,32.263184
2019-04-11T05:09:54.662Z,32.263184
2019-04-11T05:10:55.751Z,32.263184
2019-04-11T05:11:55.004Z,32.263184
2019-04-11T05:12:54.911Z,32.263184
2019-04-11T05:13:54.477Z,32.263184
2019-04-11T05:14:54.182Z,32.263184
2019-04-11T05:16:06.745Z,32.263184
2019-04-11T05:16:55.345Z,32.263184
2019-04-11T05:17:54.151Z,32.263184
2019-04-11T05:18:55.146Z,32.165527
2019-04-11T05:19:56.174Z,32.165527
2019-04-11T05:20:55.378Z,32.165527
2019-04-11T05:21:54.661Z,32.165527
2019-04-11T05:22:55.860Z,32.165527
2019-04-11T05:23:55.450Z,32.165527
2019-04-11T05:24:56.844Z,32.165527
2019-04-11T05:25:55.073Z,32.165527
2019-04-11T05:26:55.940Z,32.165527
2019-04-11T05:27:55.896Z,32.061768
2019-04-11T05:28:57.095Z,32.061768
2019-04-11T05:29:55.047Z,32.061768
2019-04-11T05:30:56.036Z,32.049561
2019-04-11T05:31:55.165Z,31.951904
2019-04-11T05:32:57.650Z,31.951904
2019-04-11T05:33:56.031Z,32.049561
2019-04-11T05:34:55.482Z,32.049561
2019-04-11T05:35:56.359Z,32.049561
2019-04-11T05:36:55.719Z,31.951904
2019-04-11T05:37:55.772Z,31.951904
2019-04-11T05:38:55.769Z,31.951904
2019-04-11T05:39:56.693Z,31.848145
2019-04-11T05:40:56.918Z,31.951904
2019-04-11T05:41:58.481Z,31.848145
2019-04-11T05:42:57.582Z,31.951904
2019-04-11T05:44:00.707Z,31.951904
2019-04-11T05:44:57.652Z,31.848145
2019-04-11T05:45:58.409Z,31.951904
2019-04-11T05:47:00.432Z,31.951904
2019-04-11T05:47:58.275Z,31.951904
2019-04-11T05:49:00.396Z,31.951904
2019-04-11T05:49:56.888Z,31.848145
2019-04-11T05:50:58.280Z,31.835938
2019-04-11T05:51:58.683Z,31.835938
2019-04-11T05:52:59.994Z,31.835938
2019-04-11T05:53:57.713Z,31.835938
2019-04-11T05:54:58.539Z,31.835938
2019-04-11T05:55:59.372Z,31.835938
2019-04-11T05:56:59.506Z,31.835938
2019-04-11T05:57:58.398Z,31.732178
2019-04-11T05:58:59.761Z,31.732178
2019-04-11T05:59:59.194Z,31.732178
2019-04-11T06:01:03.300Z,31.835938
2019-04-11T06:02:01.422Z,31.732178
2019-04-11T06:02:57.708Z,31.732178
2019-04-11T06:04:00.325Z,31.732178
2019-04-11T06:05:00.480Z,31.732178
2019-04-11T06:05:59.662Z,31.732178
2019-04-11T06:06:58.759Z,31.732178
2019-04-11T06:07:59.963Z,31.732178
2019-04-11T06:09:00.596Z,31.732178
2019-04-11T06:10:00.718Z,31.732178
2019-04-11T06:11:02.330Z,31.732178
2019-04-11T06:11:59.649Z,31.634521
2019-04-11T06:12:59.494Z,31.634521
2019-04-11T06:13:59.499Z,31.732178
2019-04-11T06:14:59.629Z,31.732178
2019-04-11T06:16:01.292Z,31.732178
2019-04-11T06:16:59.134Z,31.634521
2019-04-11T06:17:58.865Z,31.634521
2019-04-11T06:18:58.941Z,31.634521
2019-04-11T06:19:58.974Z,31.732178
2019-04-11T06:21:00.152Z,31.732178
2019-04-11T06:22:00.297Z,31.634521
2019-04-11T06:23:03.226Z,31.634521
2019-04-11T06:24:01.431Z,31.634521
2019-04-11T06:25:00.572Z,31.732178
2019-04-11T06:26:02.127Z,31.634521
2019-04-11T06:26:59.858Z,31.634521
2019-04-11T06:28:01.928Z,31.616211
2019-04-11T06:29:01.189Z,31.616211
2019-04-11T06:30:01.849Z,31.616211
2019-04-11T06:31:01.302Z,31.616211
2019-04-11T06:32:00.635Z,31.616211
2019-04-11T06:33:01.053Z,31.616211
2019-04-11T06:34:01.834Z,31.518555
2019-04-11T06:35:01.880Z,31.518555
2019-04-11T06:36:00.752Z,31.518555
2019-04-11T06:38:24.685Z,31.616211
2019-04-11T06:39:27.384Z,31.616211
2019-04-11T06:42:27.552Z,31.616211
2019-04-11T06:43:26.290Z,31.616211
2019-04-11T06:44:27.966Z,31.518555
2019-04-11T06:45:27.224Z,31.616211
2019-04-11T06:46:27.163Z,31.518555
2019-04-11T06:47:27.749Z,31.518555
2019-04-11T06:48:26.799Z,31.518555
2019-04-11T06:49:28.709Z,31.518555
2019-04-11T06:50:27.987Z,31.518555
2019-04-11T06:51:28.067Z,31.518555
2019-04-11T06:52:26.876Z,31.518555
2019-04-11T06:53:28.395Z,31.518555
2019-04-11T06:54:27.272Z,31.506348
2019-04-11T06:55:28.927Z,31.506348
2019-04-11T06:56:27.344Z,31.506348
2019-04-11T06:57:27.828Z,31.402588
2019-04-11T06:58:29.702Z,31.402588
2019-04-11T06:59:32.834Z,31.402588
2019-04-11T07:00:29.478Z,31.402588
2019-04-11T07:01:30.036Z,31.304932
2019-04-11T07:02:29.881Z,31.292725
2019-04-11T07:03:32.359Z,31.188965
2019-04-11T07:04:29.455Z,31.188965
2019-04-11T07:05:29.065Z,31.091309
2019-04-11T07:06:29.249Z,31.188965
2019-04-11T07:07:29.242Z,31.072998
2019-04-11T07:08:28.352Z,30.877686
2019-04-11T07:09:30.934Z,30.664062
2019-04-11T07:10:28.614Z,30.450439
2019-04-11T07:11:29.445Z,30.133057
2019-04-11T07:12:28.663Z,29.724121
2019-04-11T07:13:30.476Z,29.626465
2019-04-11T07:14:29.124Z,29.821777
2019-04-11T07:15:29.703Z,30.023193
2019-04-11T07:16:30.042Z,29.498291
2019-04-11T07:17:30.247Z,29.199219
2019-04-11T07:18:31.210Z,29.199219
2019-04-11T07:19:30.733Z,28.985596
2019-04-11T07:20:29.906Z,28.662109
2019-04-11T07:21:29.397Z,28.35083
2019-04-11T07:22:30.510Z,28.253174
2019-04-11T07:23:30.668Z,28.149414
2019-04-11T07:24:30.556Z,28.051758
2019-04-11T07:25:29.582Z,28.039551
2019-04-11T07:26:30.268Z,28.039551
2019-04-11T07:27:32.079Z,27.941895
2019-04-11T07:28:31.912Z,28.149414
2019-04-11T07:29:31.551Z,28.051758
2019-04-11T07:30:31.037Z,28.051758
2019-04-11T07:31:30.401Z,28.363037
2019-04-11T07:32:31.469Z,28.674316
2019-04-11T07:33:33.308Z,28.875732
2019-04-11T07:34:33.063Z,28.35083
2019-04-11T07:35:30.291Z,28.137207
2019-04-11T07:36:31.610Z,28.039551
2019-04-11T07:37:32.566Z,28.039551
2019-04-11T07:38:32.031Z,27.941895
2019-04-11T07:39:33.589Z,27.728271
2019-04-11T07:40:31.917Z,27.728271
2019-04-11T07:41:33.992Z,27.728271
2019-04-11T07:42:34.025Z,27.941895
2019-04-11T07:43:31.689Z,28.363037
2019-04-11T07:44:32.246Z,28.564453
2019-04-11T07:45:32.817Z,28.564453
2019-04-11T07:46:31.168Z,28.35083
2019-04-11T07:47:32.638Z,28.137207
2019-04-11T07:48:31.522Z,27.502441
2019-04-11T07:49:32.831Z,26.782227
2019-04-11T07:50:31.241Z,26.361084
2019-04-11T07:51:32.075Z,26.055908
2019-04-11T07:52:33.227Z,26.275635
2019-04-11T07:53:33.523Z,26.68457
2019-04-11T07:54:32.140Z,26.99585
2019-04-11T07:55:32.173Z,27.307129
2019-04-11T07:56:31.156Z,27.618408
2019-04-11T07:57:31.170Z,27.404785
2019-04-11T07:58:31.301Z,26.782227
2019-04-11T07:59:31.556Z,26.672363
2019-04-11T08:00:38.433Z,26.885986
2019-04-11T08:01:32.477Z,27.209473
2019-04-11T08:02:31.690Z,27.209473
2019-04-11T08:03:32.059Z,27.416992
2019-04-11T08:04:31.997Z,27.618408
2019-04-11T08:05:32.323Z,27.209473
2019-04-11T08:06:33.379Z,27.209473
2019-04-11T08:07:32.796Z,27.416992
2019-04-11T08:08:32.386Z,27.838135
2019-04-11T08:09:32.070Z,28.253174
2019-04-11T08:10:33.014Z,28.564453
2019-04-11T08:11:31.764Z,28.771973
2019-04-11T08:12:31.905Z,28.985596
2019-04-11T08:13:32.074Z,29.187012
2019-04-11T08:14:32.819Z,29.284668
2019-04-11T08:15:31.694Z,29.382324
2019-04-11T08:16:32.931Z,29.498291
2019-04-11T08:17:37.499Z,29.595947
2019-04-11T08:18:32.781Z,29.595947
2019-04-11T08:19:33.015Z,29.693604
2019-04-11T08:20:33.108Z,29.693604
2019-04-11T08:21:34.525Z,29.711914
2019-04-11T08:22:32.828Z,29.797363
2019-04-11T08:23:32.213Z,29.797363
2019-04-11T08:24:32.420Z,29.693604
2019-04-11T08:25:33.377Z,29.711914
2019-04-11T08:26:32.192Z,29.797363
2019-04-11T08:27:35.750Z,29.797363
2019-04-11T08:28:34.341Z,29.797363
2019-04-11T08:29:34.044Z,29.797363
2019-04-11T08:30:33.053Z,29.797363
2019-04-11T08:31:32.842Z,29.693604
2019-04-11T08:32:33.865Z,29.797363
2019-04-11T08:33:34.975Z,29.693604
2019-04-11T08:34:32.480Z,29.693604
2019-04-11T08:35:33.583Z,29.693604
2019-04-11T08:36:33.756Z,29.693604
2019-04-11T08:37:33.719Z,29.693604
2019-04-11T08:38:32.707Z,29.693604
2019-04-11T08:39:33.261Z,29.693604
2019-04-11T08:40:33.596Z,29.693604
2019-04-11T08:41:33.929Z,29.693604
2019-04-11T08:42:33.708Z,29.681396
2019-04-11T08:43:33.452Z,29.681396
2019-04-11T08:44:34.108Z,29.681396
2019-04-11T08:45:33.891Z,29.681396
2019-04-11T08:46:35.103Z,29.58374
2019-04-11T08:47:41.386Z,29.58374
2019-04-11T08:48:35.139Z,29.47998
2019-04-11T08:49:34.979Z,29.58374
2019-04-11T08:50:34.480Z,29.47998
2019-04-11T08:51:39.272Z,29.467773
2019-04-11T08:52:33.236Z,29.467773
2019-04-11T08:53:35.046Z,29.467773
2019-04-11T08:54:34.437Z,29.467773
2019-04-11T08:55:45.345Z,29.467773
2019-04-11T08:56:36.822Z,29.370117
2019-04-11T08:57:34.638Z,29.370117
2019-04-11T08:58:34.381Z,29.370117
2019-04-11T08:59:33.780Z,29.370117
2019-04-11T09:00:34.813Z,29.370117
2019-04-11T09:01:34.660Z,29.272461
2019-04-11T09:02:35.869Z,29.25415
2019-04-11T09:03:35.150Z,29.272461
2019-04-11T09:04:36.430Z,29.25415
2019-04-11T09:05:35.321Z,29.25415
2019-04-11T09:06:34.068Z,29.25415
2019-04-11T09:07:34.294Z,29.156494
2019-04-11T09:08:34.319Z,29.25415
2019-04-11T09:09:36.222Z,29.156494
2019-04-11T09:10:35.948Z,29.25415
2019-04-11T09:11:36.580Z,29.25415
2019-04-11T09:12:36.393Z,29.156494
2019-04-11T09:13:35.655Z,29.058838
2019-04-11T09:14:34.206Z,29.156494
2019-04-11T09:15:35.124Z,29.058838
2019-04-11T09:16:34.397Z,29.058838
2019-04-11T09:17:34.551Z,29.156494
2019-04-11T09:18:36.518Z,29.058838
2019-04-11T09:19:34.769Z,29.058838
2019-04-11T09:20:35.841Z,29.058838
2019-04-11T09:21:34.793Z,29.058838
2019-04-11T09:22:35.313Z,29.058838
2019-04-11T09:23:36.286Z,29.040527
2019-04-11T09:24:36.745Z,29.040527
2019-04-11T09:25:37.018Z,28.942871
2019-04-11T09:26:36.134Z,28.942871
2019-04-11T09:27:36.189Z,28.942871
2019-04-11T09:28:37.655Z,28.942871
2019-04-11T09:29:37.810Z,28.942871
2019-04-11T09:30:38.915Z,28.942871
2019-04-11T09:31:35.840Z,28.845215
2019-04-11T09:32:36.346Z,28.942871
2019-04-11T09:33:35.654Z,28.942871
2019-04-11T09:34:35.709Z,28.942871
2019-04-11T09:35:35.786Z,28.942871
2019-04-11T09:36:36.781Z,28.942871
2019-04-11T09:37:37.564Z,28.942871
2019-04-11T09:38:35.741Z,29.040527
2019-04-11T09:39:37.211Z,28.942871
2019-04-11T09:40:37.607Z,28.942871
2019-04-11T09:41:38.668Z,28.942871
2019-04-11T09:42:38.679Z,29.144287
2019-04-11T09:43:50.543Z,29.156494
2019-04-11T09:44:43.345Z,29.25415
2019-04-11T09:45:37.456Z,29.35791
2019-04-11T09:46:37.200Z,29.35791
2019-04-11T09:47:38.646Z,29.35791
2019-04-11T09:48:37.901Z,29.35791
2019-04-11T09:49:36.185Z,29.35791
2019-04-11T09:50:36.420Z,29.144287
2019-04-11T09:51:38.622Z,29.144287
2019-04-11T09:52:41.122Z,29.25415
2019-04-11T09:53:38.787Z,29.35791
2019-04-11T09:54:38.161Z,29.35791
2019-04-11T09:55:37.736Z,29.35791
2019-04-11T09:56:38.015Z,29.455566
2019-04-11T09:57:37.996Z,29.455566
2019-04-11T09:58:37.900Z,29.455566
2019-04-11T09:59:37.435Z,29.553223
2019-04-11T10:00:37.018Z,29.553223
2019-04-11T10:01:37.136Z,29.455566
2019-04-11T10:02:39.695Z,29.455566
2019-04-11T10:03:36.653Z,29.553223
2019-04-11T10:04:36.515Z,29.56543
2019-04-11T10:05:40.702Z,29.56543
2019-04-11T10:06:36.756Z,29.669189
2019-04-11T10:07:37.598Z,29.669189
2019-04-11T10:08:37.260Z,29.669189
2019-04-11T10:09:36.377Z,29.669189
2019-04-11T10:10:39.964Z,29.766846
2019-04-11T10:11:37.989Z,29.779053
2019-04-11T10:12:36.512Z,29.876709
2019-04-11T10:13:38.820Z,29.779053
2019-04-11T10:14:37.641Z,29.779053
2019-04-11T10:15:37.610Z,29.779053
2019-04-11T10:16:36.838Z,29.779053
2019-04-11T10:17:38.055Z,29.779053
2019-04-11T10:18:39.047Z,29.779053
2019-04-11T10:19:38.203Z,29.779053
2019-04-11T10:20:38.065Z,29.876709
2019-04-11T10:21:37.771Z,29.876709
2019-04-11T10:22:38.297Z,29.992676
2019-04-11T10:23:38.038Z,29.992676
2019-04-11T10:24:38.775Z,29.992676
2019-04-11T10:25:39.321Z,30.090332
2019-04-11T10:26:40.353Z,30.090332
2019-04-11T10:27:38.535Z,29.992676
2019-04-11T10:28:39.751Z,30.090332
2019-04-11T10:29:39.822Z,29.992676
2019-04-11T10:30:40.025Z,29.992676
2019-04-11T10:31:38.805Z,29.992676
2019-04-11T10:32:39.274Z,30.090332
2019-04-11T10:33:39.570Z,30.090332
2019-04-11T10:34:37.652Z,30.090332
2019-04-11T10:35:38.645Z,30.090332
2019-04-11T10:36:39.031Z,30.090332
2019-04-11T10:37:40.133Z,30.090332
2019-04-11T10:38:40.574Z,30.090332
2019-04-11T10:39:37.660Z,30.194092
2019-04-11T10:40:37.936Z,30.090332
2019-04-11T10:41:38.595Z,30.194092
2019-04-11T10:42:39.003Z,30.090332
2019-04-11T10:43:42.558Z,30.090332
2019-04-11T10:44:38.774Z,30.194092
2019-04-11T10:45:38.753Z,29.992676
2019-04-11T10:46:39.638Z,30.090332
2019-04-11T10:47:40.803Z,30.090332
2019-04-11T10:48:45.205Z,30.194092
2019-04-11T10:51:29.621Z,30.303955
2019-04-11T10:52:16.248Z,30.090332
2019-04-11T10:54:19.486Z,30.194092
2019-04-11T10:55:13.557Z,30.090332
2019-04-11T10:57:22.470Z,30.194092
2019-04-11T10:58:20.482Z,30.194092
2019-04-11T10:59:17.679Z,30.090332
2019-04-11T11:00:17.408Z,30.090332
2019-04-11T11:01:20.574Z,30.194092
2019-04-11T11:02:20.930Z,30.206299
2019-04-11T11:03:18.215Z,30.206299
2019-04-11T11:04:18.271Z,30.206299
2019-04-11T11:05:19.436Z,30.206299
2019-04-11T11:06:17.864Z,30.303955
2019-04-11T11:07:20.285Z,30.303955
2019-04-11T11:08:22.149Z,30.303955
2019-04-11T11:09:17.674Z,30.407715
2019-04-11T11:10:17.991Z,30.407715
2019-04-11T11:11:17.580Z,30.407715
2019-04-11T11:12:17.302Z,30.407715
2019-04-11T11:13:18.128Z,30.505371
2019-04-11T11:14:20.696Z,30.407715
2019-04-11T11:15:17.735Z,30.517578
2019-04-11T11:16:24.515Z,30.517578
2019-04-11T11:17:39.837Z,30.621338
2019-04-11T11:18:53.545Z,30.621338
2019-04-11T11:19:40.149Z,30.621338
2019-04-11T11:20:24.712Z,30.517578
2019-04-11T11:21:19.754Z,30.517578
2019-04-11T11:23:20.342Z,30.517578
2019-04-11T11:24:26.015Z,30.517578
2019-04-11T11:25:58.493Z,30.517578
2019-04-11T11:26:58.622Z,30.517578
2019-04-11T11:27:52.428Z,30.517578
2019-04-11T11:28:53.429Z,30.517578
2019-04-11T11:29:54.017Z,30.517578
2019-04-11T11:30:54.118Z,30.621338
2019-04-11T11:31:54.552Z,30.517578
2019-04-11T11:32:53.846Z,30.517578
2019-04-11T11:33:52.849Z,30.517578
2019-04-11T11:34:53.446Z,30.517578
2019-04-11T11:35:53.972Z,30.517578
2019-04-11T11:36:56.690Z,30.517578
2019-04-11T11:37:53.462Z,30.517578